EDGS

Siegerland Airport

Germany
METAR EDGS 181420Z 26005KT 180V320 CAVOK 22/08 Q1023
Observed Flight Rules
Aug-18 @ 14:20 UTC (33 minutes ago) Visual Flight Rules
Wind Visibility Clouds
260° at 5 knots 10,000+ meters
  • Clear skies
Temperatures Readings
Current 22°C / 72°F
Dewpoint 8°C / 46°F
Humidity 41%
Altimeter 30.21" Hg
Pressure 1023 hPa
Elevation 602
METAR EDGS 181420Z 26005KT 180V320 CAVOK 22/08 Q1023
Observed Flight Rules
Aug-18 @ 14:20 UTC
(33 minutes ago)
VFR
Wind Visibility
260° at 5 knots 10,000+ meters
Clouds
  • Clear skies
Temperature Dewpoint
22°C / 72°F 8°C / 46°F
Humidity Altimeter Pressure
41% 30.21" Hg 1023 hPa